sensor_id;sensor_type;location;lat;lon;timestamp;temperature;humidity
4293;DHT22;2160;51.172;6.808;2023-03-08T05:03:10;5.70;99.90
4293;DHT22;2160;51.172;6.808;2023-03-08T05:05:43;5.90;99.90
4293;DHT22;2160;51.172;6.808;2023-03-08T05:08:16;5.70;99.90
4293;DHT22;2160;51.172;6.808;2023-03-08T05:10:47;5.70;99.90
4293;DHT22;2160;51.172;6.808;2023-03-08T05:13:16;5.60;99.90
4293;DHT22;2160;51.172;6.808;2023-03-08T05:15:47;5.90;99.90
4293;DHT22;2160;51.172;6.808;2023-03-08T05:18:15;5.70;99.90
4293;DHT22;2160;51.172;6.808;2023-03-08T05:20:51;5.70;99.90
4293;DHT22;2160;51.172;6.808;2023-03-08T05:23:23;5.60;99.90
4293;DHT22;2160;51.172;6.808;2023-03-08T05:25:55;5.80;99.90
4293;DHT22;2160;51.172;6.808;2023-03-08T05:28:25;5.80;99.90
4293;DHT22;2160;51.172;6.808;2023-03-08T05:34:20;5.60;99.90
4293;DHT22;2160;51.172;6.808;2023-03-08T05:37:35;5.70;99.90
4293;DHT22;2160;51.172;6.808;2023-03-08T05:40:39;5.60;99.90
4293;DHT22;2160;51.172;6.808;2023-03-08T05:43:22;5.50;99.90
4293;DHT22;2160;51.172;6.808;2023-03-08T05:46:00;5.70;99.90
4293;DHT22;2160;51.172;6.808;2023-03-08T05:52:19;5.40;99.90
4293;DHT22;2160;51.172;6.808;2023-03-08T05:59:40;5.60;99.90
4293;DHT22;2160;51.172;6.808;2023-03-08T06:06:39;5.40;99.90
4293;DHT22;2160;51.172;6.808;2023-03-08T06:09:51;5.20;99.90
4293;DHT22;2160;51.172;6.808;2023-03-08T06:12:54;5.20;99.90
4293;DHT22;2160;51.172;6.808;2023-03-08T06:15:43;5.00;99.90
4293;DHT22;2160;51.172;6.808;2023-03-08T06:18:11;5.20;99.90
4293;DHT22;2160;51.172;6.808;2023-03-08T06:20:41;5.30;99.90
4293;DHT22;2160;51.172;6.808;2023-03-08T06:23:08;5.20;99.90
4293;DHT22;2160;51.172;6.808;2023-03-08T06:25:37;5.30;99.90
4293;DHT22;2160;51.172;6.808;2023-03-08T06:28:13;5.40;99.90
4293;DHT22;2160;51.172;6.808;2023-03-08T06:30:47;5.30;99.90
4293;DHT22;2160;51.172;6.808;2023-03-08T06:33:25;5.40;99.90
4293;DHT22;2160;51.172;6.808;2023-03-08T06:35:55;5.30;99.90
4293;DHT22;2160;51.172;6.808;2023-03-08T06:38:51;5.40;99.90
4293;DHT22;2160;51.172;6.808;2023-03-08T06:41:52;5.40;99.90
4293;DHT22;2160;51.172;6.808;2023-03-08T06:44:30;5.60;99.90
4293;DHT22;2160;51.172;6.808;2023-03-08T06:47:31;5.80;99.90
4293;DHT22;2160;51.172;6.808;2023-03-08T06:50:02;5.40;99.90
4293;DHT22;2160;51.172;6.808;2023-03-08T06:52:47;5.60;99.90
4293;DHT22;2160;51.172;6.808;2023-03-08T06:55:22;5.70;99.90
4293;DHT22;2160;51.172;6.808;2023-03-08T06:57:51;5.40;99.90
4293;DHT22;2160;51.172;6.808;2023-03-08T07:00:23;5.60;99.90
4293;DHT22;2160;51.172;6.808;2023-03-08T07:02:50;5.50;99.90
4293;DHT22;2160;51.172;6.808;2023-03-08T07:05:37;5.60;99.90
4293;DHT22;2160;51.172;6.808;2023-03-08T07:08:11;5.50;99.90
4293;DHT22;2160;51.172;6.808;2023-03-08T07:10:50;5.60;99.90
4293;DHT22;2160;51.172;6.808;2023-03-08T07:13:53;5.70;99.90
4293;DHT22;2160;51.172;6.808;2023-03-08T07:16:22;5.80;99.90
4293;DHT22;2160;51.172;6.808;2023-03-08T07:18:56;5.90;99.90
4293;DHT22;2160;51.172;6.808;2023-03-08T07:21:25;5.80;99.90
4293;DHT22;2160;51.172;6.808;2023-03-08T07:24:03;5.80;99.90
4293;DHT22;2160;51.172;6.808;2023-03-08T07:26:36;5.70;99.90
4293;DHT22;2160;51.172;6.808;2023-03-08T07:29:27;5.80;99.90
4293;DHT22;2160;51.172;6.808;2023-03-08T07:32:05;5.60;99.90
4293;DHT22;2160;51.172;6.808;2023-03-08T07:34:50;5.60;99.90
4293;DHT22;2160;51.172;6.808;2023-03-08T07:37:49;5.70;99.90
4293;DHT22;2160;51.172;6.808;2023-03-08T07:40:26;5.70;99.90
4293;DHT22;2160;51.172;6.808;2023-03-08T07:42:58;5.50;99.90
4293;DHT22;2160;51.172;6.808;2023-03-08T07:45:49;5.80;99.90
4293;DHT22;2160;51.172;6.808;2023-03-08T07:48:47;5.50;99.90
4293;DHT22;2160;51.172;6.808;2023-03-08T07:51:42;5.60;99.90
4293;DHT22;2160;51.172;6.808;2023-03-08T07:54:19;5.60;99.90
4293;DHT22;2160;51.172;6.808;2023-03-08T07:57:06;5.70;99.90
4293;DHT22;2160;51.172;6.808;2023-03-08T07:59:37;5.70;99.90
4293;DHT22;2160;51.172;6.808;2023-03-08T08:02:26;5.70;99.90
4293;DHT22;2160;51.172;6.808;2023-03-08T08:05:02;5.60;99.90
4293;DHT22;2160;51.172;6.808;2023-03-08T08:07:35;5.60;99.90
4293;DHT22;2160;51.172;6.808;2023-03-08T08:10:29;5.70;99.90
4293;DHT22;2160;51.172;6.808;2023-03-08T08:13:11;5.90;99.90
4293;DHT22;2160;51.172;6.808;2023-03-08T08:17:34;5.70;99.90
4293;DHT22;2160;51.172;6.808;2023-03-08T08:19:53;5.60;99.90
4293;DHT22;2160;51.172;6.808;2023-03-08T08:22:48;5.60;99.90
4293;DHT22;2160;51.172;6.808;2023-03-08T08:29:33;5.60;99.90
4293;DHT22;2160;51.172;6.808;2023-03-08T08:33:06;5.70;99.90
4293;DHT22;2160;51.172;6.808;2023-03-08T08:36:01;5.60;99.90
4293;DHT22;2160;51.172;6.808;2023-03-08T08:40:02;5.60;99.90
4293;DHT22;2160;51.172;6.808;2023-03-08T08:46:04;5.60;99.90
4293;DHT22;2160;51.172;6.808;2023-03-08T08:49:20;5.60;99.90
4293;DHT22;2160;51.172;6.808;2023-03-08T08:51:56;5.60;99.90
4293;DHT22;2160;51.172;6.808;2023-03-08T08:54:44;5.70;99.90
4293;DHT22;2160;51.172;6.808;2023-03-08T09:02:00;5.70;99.90
4293;DHT22;2160;51.172;6.808;2023-03-08T09:05:13;5.70;99.90
4293;DHT22;2160;51.172;6.808;2023-03-08T09:08:33;5.60;99.90
4293;DHT22;2160;51.172;6.808;2023-03-08T09:11:05;5.70;99.90
4293;DHT22;2160;51.172;6.808;2023-03-08T09:14:36;5.80;99.90
4293;DHT22;2160;51.172;6.808;2023-03-08T09:18:16;5.80;99.90
4293;DHT22;2160;51.172;6.808;2023-03-08T09:22:51;5.80;99.90
4293;DHT22;2160;51.172;6.808;2023-03-08T09:39:16;5.60;99.90
4293;DHT22;2160;51.172;6.808;2023-03-08T09:42:05;6.10;99.90
4293;DHT22;2160;51.172;6.808;2023-03-08T09:47:51;6.00;99.90
4293;DHT22;2160;51.172;6.808;2023-03-08T09:50:54;6.20;99.90
4293;DHT22;2160;51.172;6.808;2023-03-08T09:53:52;6.10;99.90
4293;DHT22;2160;51.172;6.808;2023-03-08T09:58:03;6.20;99.90
4293;DHT22;2160;51.172;6.808;2023-03-08T10:00:25;6.20;99.90
4293;DHT22;2160;51.172;6.808;2023-03-08T10:07:15;6.40;99.90
4293;DHT22;2160;51.172;6.808;2023-03-08T10:13:49;6.40;99.90
4293;DHT22;2160;51.172;6.808;2023-03-08T10:16:24;6.50;99.90
4293;DHT22;2160;51.172;6.808;2023-03-08T10:19:01;6.50;99.90
4293;DHT22;2160;51.172;6.808;2023-03-08T10:21:40;6.40;99.90
4293;DHT22;2160;51.172;6.808;2023-03-08T10:24:25;6.50;99.90
4293;DHT22;2160;51.172;6.808;2023-03-08T10:27:16;6.50;99.90
4293;DHT22;2160;51.172;6.808;2023-03-08T10:29:51;6.60;99.90
4293;DHT22;2160;51.172;6.808;2023-03-08T10:36:00;6.70;99.90
4293;DHT22;2160;51.172;6.808;2023-03-08T10:43:27;6.60;99.90
4293;DHT22;2160;51.172;6.808;2023-03-08T10:46:17;6.70;99.90
4293;DHT22;2160;51.172;6.808;2023-03-08T10:48:51;6.80;99.90
4293;DHT22;2160;51.172;6.808;2023-03-08T10:51:23;6.80;99.90
4293;DHT22;2160;51.172;6.808;2023-03-08T10:53:55;6.70;99.90
4293;DHT22;2160;51.172;6.808;2023-03-08T10:56:43;6.70;99.90
4293;DHT22;2160;51.172;6.808;2023-03-08T11:09:40;6.20;99.90
4293;DHT22;2160;51.172;6.808;2023-03-08T11:12:21;6.50;99.90
4293;DHT22;2160;51.172;6.808;2023-03-08T11:14:51;6.60;99.90
4293;DHT22;2160;51.172;6.808;2023-03-08T11:17:22;6.60;99.90
4293;DHT22;2160;51.172;6.808;2023-03-08T11:23:05;6.50;99.90
4293;DHT22;2160;51.172;6.808;2023-03-08T11:25:47;6.70;99.90
4293;DHT22;2160;51.172;6.808;2023-03-08T11:28:50;6.90;99.90
4293;DHT22;2160;51.172;6.808;2023-03-08T11:31:34;7.00;99.90
4293;DHT22;2160;51.172;6.808;2023-03-08T11:37:23;7.00;99.90
4293;DHT22;2160;51.172;6.808;2023-03-08T11:44:23;6.80;99.90
4293;DHT22;2160;51.172;6.808;2023-03-08T11:50:52;7.00;99.90
4293;DHT22;2160;51.172;6.808;2023-03-08T11:57:37;7.20;99.90
4293;DHT22;2160;51.172;6.808;2023-03-08T12:00:59;7.20;99.90
4293;DHT22;2160;51.172;6.808;2023-03-08T12:03:55;7.10;99.90
4293;DHT22;2160;51.172;6.808;2023-03-08T12:07:07;7.00;99.90
4293;DHT22;2160;51.172;6.808;2023-03-08T12:10:07;6.80;99.90
4293;DHT22;2160;51.172;6.808;2023-03-08T12:13:26;6.80;99.90
4293;DHT22;2160;51.172;6.808;2023-03-08T12:16:36;7.10;99.90
4293;DHT22;2160;51.172;6.808;2023-03-08T12:23:32;7.40;99.90
4293;DHT22;2160;51.172;6.808;2023-03-08T12:28:25;7.20;99.90
4293;DHT22;2160;51.172;6.808;2023-03-08T12:30:37;7.40;99.90
4293;DHT22;2160;51.172;6.808;2023-03-08T12:41:37;7.20;99.90
4293;DHT22;2160;51.172;6.808;2023-03-08T12:45:28;7.20;99.90
4293;DHT22;2160;51.172;6.808;2023-03-08T12:48:33;7.40;99.90
4293;DHT22;2160;51.172;6.808;2023-03-08T12:55:15;7.60;99.90
4293;DHT22;2160;51.172;6.808;2023-03-08T12:58:38;7.70;99.90
4293;DHT22;2160;51.172;6.808;2023-03-08T13:12:56;7.80;99.90
4293;DHT22;2160;51.172;6.808;2023-03-08T13:23:52;7.60;99.90
4293;DHT22;2160;51.172;6.808;2023-03-08T13:30:14;8.00;99.90
4293;DHT22;2160;51.172;6.808;2023-03-08T13:33:27;8.20;99.90
4293;DHT22;2160;51.172;6.808;2023-03-08T13:36:18;8.20;99.90
4293;DHT22;2160;51.172;6.808;2023-03-08T13:38:59;8.30;99.90
4293;DHT22;2160;51.172;6.808;2023-03-08T13:44:23;8.30;99.90
4293;DHT22;2160;51.172;6.808;2023-03-08T13:47:13;8.20;99.90
4293;DHT22;2160;51.172;6.808;2023-03-08T13:50:25;8.50;99.90
4293;DHT22;2160;51.172;6.808;2023-03-08T13:53:31;8.30;99.90
4293;DHT22;2160;51.172;6.808;2023-03-08T13:56:50;8.40;99.90
4293;DHT22;2160;51.172;6.808;2023-03-08T14:00:32;8.20;99.90
4293;DHT22;2160;51.172;6.808;2023-03-08T14:03:17;8.30;99.90
4293;DHT22;2160;51.172;6.808;2023-03-08T14:05:47;8.50;99.90
4293;DHT22;2160;51.172;6.808;2023-03-08T14:08:22;8.40;99.90
4293;DHT22;2160;51.172;6.808;2023-03-08T14:11:03;8.30;99.90
4293;DHT22;2160;51.172;6.808;2023-03-08T14:14:23;8.40;99.90
4293;DHT22;2160;51.172;6.808;2023-03-08T14:18:06;8.50;99.90
4293;DHT22;2160;51.172;6.808;2023-03-08T14:46:38;8.60;99.90
4293;DHT22;2160;51.172;6.808;2023-03-08T14:49:17;8.60;99.90
4293;DHT22;2160;51.172;6.808;2023-03-08T14:52:17;8.60;99.90
4293;DHT22;2160;51.172;6.808;2023-03-08T14:55:35;8.60;99.90
4293;DHT22;2160;51.172;6.808;2023-03-08T14:58:43;8.80;99.90
4293;DHT22;2160;51.172;6.808;2023-03-08T15:01:41;8.70;99.90
4293;DHT22;2160;51.172;6.808;2023-03-08T15:08:44;8.80;99.90
4293;DHT22;2160;51.172;6.808;2023-03-08T15:11:51;8.60;99.90
4293;DHT22;2160;51.172;6.808;2023-03-08T19:26:12;7.50;99.90
4293;DHT22;2160;51.172;6.808;2023-03-08T19:29:30;7.40;99.90
4293;DHT22;2160;51.172;6.808;2023-03-08T19:32:59;7.50;99.90
4293;DHT22;2160;51.172;6.808;2023-03-08T19:36:18;7.50;99.90
4293;DHT22;2160;51.172;6.808;2023-03-08T19:46:11;7.60;99.90
4293;DHT22;2160;51.172;6.808;2023-03-08T19:49:06;7.70;99.90
4293;DHT22;2160;51.172;6.808;2023-03-08T19:52:03;7.70;99.90
4293;DHT22;2160;51.172;6.808;2023-03-08T19:54:51;7.60;99.90
4293;DHT22;2160;51.172;6.808;2023-03-08T19:57:27;7.70;99.90
4293;DHT22;2160;51.172;6.808;2023-03-08T20:11:04;7.40;99.90
4293;DHT22;2160;51.172;6.808;2023-03-08T20:14:28;7.50;99.90
4293;DHT22;2160;51.172;6.808;2023-03-08T20:17:44;7.60;99.90
4293;DHT22;2160;51.172;6.808;2023-03-08T20:21:27;7.70;99.90
4293;DHT22;2160;51.172;6.808;2023-03-08T20:32:22;7.60;99.90
4293;DHT22;2160;51.172;6.808;2023-03-08T21:05:40;7.90;99.90
4293;DHT22;2160;51.172;6.808;2023-03-08T21:09:37;7.90;99.90
4293;DHT22;2160;51.172;6.808;2023-03-08T21:19:40;7.80;99.90
4293;DHT22;2160;51.172;6.808;2023-03-08T21:40:05;7.90;99.90
4293;DHT22;2160;51.172;6.808;2023-03-08T21:52:46;7.80;99.90
4293;DHT22;2160;51.172;6.808;2023-03-08T23:17:33;7.90;99.90
